Observation data for Pampa on 05/27/2019      Previous  Date  Next       Current Mesonet Observations  Soil Data  Daily Summary Page  Observations in Plain Language
KPMS 270500Z 17011KT 17/14 A2986 RMK A01 T01700137  RH  085%=      5-min Rain = 0
KPMS 270505Z 17012KT 17/14 A2988 RMK A01 T01720137  RH  083%=      5-min Rain = 0
KPMS 270510Z 15013KT 17/15 A2989 RMK A01 T01720145  RH  088%=      5-min Rain = 0
KPMS 270515Z 14012KT 17/15 A2989 RMK A01 T01700147  RH  090%=      5-min Rain = 0
KPMS 270520Z 15011KT 17/14 A299 RMK A01 T01670144  RH  090%=      5-min Rain = 0
KPMS 270525Z 15009KT 16/14 A2989 RMK A01 T01640144  RH  092%=      5-min Rain = 0
KPMS 270530Z 15007KT 16/15 A2989 RMK A01 T01630145  RH  093%=      5-min Rain = 0
KPMS 270535Z 17004KT 16/15 A299 RMK A01 T01640148  RH  094%=      5-min Rain = 0
KPMS 270540Z 28003KT 17/15 A299 RMK A01 T01670150  RH  094%=      5-min Rain = 0
KPMS 270545Z 32003KT 17/15 A2989 RMK A01 T01670150  RH  094%=      5-min Rain = 0
KPMS 270550Z 10001KT 17/15 A2988 RMK A01 T01670151  RH  094%=      5-min Rain = 0
KPMS 270555Z 14003KT 17/15 A2988 RMK A01 T01680152  RH  094%=      5-min Rain = 0
KPMS 270600Z 15007KT 17/16 A2988 RMK A01 T01710156  RH  095%=      5-min Rain = 0
KPMS 270605Z 15008KT 17/16 A2988 RMK A01 T01740158  RH  095%=      5-min Rain = 0
KPMS 270610Z 16008KT 18/16 A2988 RMK A01 T01760158  RH  094%=      5-min Rain = 0
KPMS 270615Z 16009KT 18/16 A2988 RMK A01 T01760158  RH  094%=      5-min Rain = 0
KPMS 270620Z 16011KT 18/16 A2988 RMK A01 T01770159  RH  093%=      5-min Rain = 0
KPMS 270625Z 17010KT 18/16 A2988 RMK A01 T01780161  RH  094%=      5-min Rain = 0
KPMS 270630Z 17010KT 18/16 A2989 RMK A01 T01790162  RH  094%=      5-min Rain = 0
KPMS 270635Z 16011KT 18/16 A2989 RMK A01 T01790163  RH  095%=      5-min Rain = 0
KPMS 270640Z 17011KT 18/17 A2989 RMK A01 T01800165  RH  096%=      5-min Rain = 0
KPMS 270645Z 17010KT 18/17 A2989 RMK A01 T01810167  RH  096%=      5-min Rain = 0
KPMS 270650Z 17011KT 18/17 A2989 RMK A01 T01830169  RH  096%=      5-min Rain = 0
KPMS 270655Z 17012KT 19/17 A2989 RMK A01 T01850172  RH  096%=      5-min Rain = 0
KPMS 270700Z 17013KT 19/17 A2988 RMK A01 T01880174  RH  096%=      5-min Rain = 0
KPMS 270705Z 17013KT 19/17 A2988 RMK A01 T01900174  RH  096%=      5-min Rain = 0
KPMS 270710Z 16013KT 19/18 A2988 RMK A01 T01900175  RH  096%=      5-min Rain = 0
KPMS 270715Z 16013KT 19/18 A2988 RMK A01 T01910176  RH  096%=      5-min Rain = 0
KPMS 270720Z 16014KT 19/18 A2987 RMK A01 T01910176  RH  096%=      5-min Rain = 0
KPMS 270725Z 16016KT 19/18 A2986 RMK A01 T01910175  RH  096%=      5-min Rain = 0
KPMS 270730Z 16016G21KT 19/18 A2986 RMK A01 T01910175  RH  096%=      5-min Rain = 0
KPMS 270735Z 16016KT 19/18 A2986 RMK A01 T01900175  RH  096%=      5-min Rain = 0
KPMS 270740Z 16014KT 19/17 A2986 RMK A01 T01890174  RH  096%=      5-min Rain = 0
KPMS 270745Z 16015KT 19/17 A2985 RMK A01 T01880174  RH  097%=      5-min Rain = 0
KPMS 270750Z 16015KT 19/17 A2985 RMK A01 T01870174  RH  097%=      5-min Rain = 0
KPMS 270755Z 15015KT 19/17 A2985 RMK A01 T01870174  RH  097%=      5-min Rain = 0
KPMS 270800Z 16014KT 19/17 A2986 RMK A01 T01860173  RH  097%=      5-min Rain = 0
KPMS 270805Z 16013KT 19/17 A2986 RMK A01 T01850173  RH  097%=      5-min Rain = 0
KPMS 270810Z 16012KT 18/17 A2986 RMK A01 T01840172  RH  097%=      5-min Rain = 0
KPMS 270815Z 16012KT 18/17 A2985 RMK A01 T01840172  RH  098%=      5-min Rain = 0
KPMS 270820Z 16012KT 18/17 A2985 RMK A01 T01830172  RH  098%=      5-min Rain = 0
KPMS 270825Z 16012KT 18/17 A2985 RMK A01 T01830172  RH  098%=      5-min Rain = 0
KPMS 270830Z 16013KT 18/17 A2985 RMK A01 T01820172  RH  098%=      5-min Rain = 0
KPMS 270835Z 16013KT 18/17 A2985 RMK A01 T01820171  RH  098%=      5-min Rain = 0
KPMS 270840Z 16013KT 18/17 A2985 RMK A01 T01820172  RH  099%=      5-min Rain = 0
KPMS 270845Z 16014KT 18/17 A2985 RMK A01 T01820171  RH  099%=      5-min Rain = 0
KPMS 270850Z 16014KT 18/17 A2984 RMK A01 T01820171  RH  099%=      5-min Rain = 0
KPMS 270855Z 16014KT 18/17 A2984 RMK A01 T01810171  RH  099%=      5-min Rain = 0
KPMS 270900Z 16014KT 18/17 A2984 RMK A01 T01810171  RH  099%=      5-min Rain = 0
KPMS 270905Z 16014KT 18/17 A2984 RMK A01 T01810170  RH  098%=      5-min Rain = 0
KPMS 270910Z 16013KT 18/17 A2984 RMK A01 T01800170  RH  098%=      5-min Rain = 0
KPMS 270915Z 16013KT 18/17 A2984 RMK A01 T01800170  RH  099%=      5-min Rain = 0
KPMS 270920Z 16014KT 18/17 A2984 RMK A01 T01800170  RH  099%=      5-min Rain = 0
KPMS 270925Z 16014KT 18/17 A2984 RMK A01 T01800170  RH  099%=      5-min Rain = 0
KPMS 270930Z 16013KT 18/17 A2984 RMK A01 T01800170  RH  099%=      5-min Rain = 0
KPMS 270935Z 16013KT 18/17 A2984 RMK A01 T01800171  RH  099%=      5-min Rain = 0
KPMS 270940Z 16014KT 18/17 A2984 RMK A01 T01810171  RH  099%=      5-min Rain = 0
KPMS 270945Z 16013KT 18/17 A2984 RMK A01 T01800171  RH  099%=      5-min Rain = 0
KPMS 270950Z 16013G18KT 18/17 A2985 RMK A01 T01800171  RH  099%=      5-min Rain = 0
KPMS 270955Z 16013KT 18/17 A2985 RMK A01 T01800171  RH  099%=      5-min Rain = 0
KPMS 271000Z 16013KT 18/17 A2985 RMK A01 T01790170  RH  099%=      5-min Rain = 0
KPMS 271005Z 16012KT 18/17 A2985 RMK A01 T01790170  RH  099%=      5-min Rain = 0
KPMS 271010Z 16011KT 18/17 A2985 RMK A01 T01780169  RH  099%=      5-min Rain = 0
KPMS 271015Z 16011KT 18/17 A2985 RMK A01 T01770168  RH  099%=      5-min Rain = 0
KPMS 271020Z 16011KT 18/17 A2985 RMK A01 T01770168  RH  099%=      5-min Rain = 0
KPMS 271025Z 16011KT 18/17 A2985 RMK A01 T01760167  RH  099%=      5-min Rain = 0
KPMS 271030Z 16011KT 18/17 A2985 RMK A01 T01750167  RH  099%=      5-min Rain = 0.01
KPMS 271035Z 16011KT 18/17 A2985 RMK A01 T01750166  RH  099%=      5-min Rain = 0
KPMS 271040Z 17011KT 18/17 A2985 RMK A01 T01750166  RH  099%=      5-min Rain = 0
KPMS 271045Z 17010KT 18/17 A2985 RMK A01 T01750166  RH  099%=      5-min Rain = 0
KPMS 271050Z 17010KT 17/17 A2985 RMK A01 T01740165  RH  099%=      5-min Rain = 0
KPMS 271055Z 17010KT 17/17 A2985 RMK A01 T01740165  RH  099%=      5-min Rain = 0
KPMS 271100Z 17009KT 17/17 A2985 RMK A01 T01740165  RH  099%=      5-min Rain = 0
KPMS 271105Z 17009KT 17/16 A2985 RMK A01 T01740164  RH  099%=      5-min Rain = 0
KPMS 271110Z 17009KT 17/16 A2986 RMK A01 T01740164  RH  098%=      5-min Rain = 0
KPMS 271115Z 17009KT 17/16 A2986 RMK A01 T01740164  RH  098%=      5-min Rain = 0
KPMS 271120Z 18008KT 17/16 A2986 RMK A01 T01740163  RH  098%=      5-min Rain = 0
KPMS 271125Z 18008KT 17/16 A2986 RMK A01 T01740163  RH  098%=      5-min Rain = 0
KPMS 271130Z 18008KT 17/16 A2986 RMK A01 T01740162  RH  098%=      5-min Rain = 0
KPMS 271135Z 18008KT 17/16 A2986 RMK A01 T01740163  RH  098%=      5-min Rain = 0
KPMS 271140Z 18009KT 17/16 A2986 RMK A01 T01740163  RH  098%=      5-min Rain = 0
KPMS 271145Z 19009KT 18/16 A2986 RMK A01 T01750163  RH  097%=      5-min Rain = 0
KPMS 271150Z 19009KT 18/16 A2986 RMK A01 T01750163  RH  097%=      5-min Rain = 0
KPMS 271155Z 19009KT 17/16 A2986 RMK A01 T01740162  RH  098%=      5-min Rain = 0
KPMS 271200Z 19008KT 17/16 A2986 RMK A01 T01730162  RH  098%=      5-min Rain = 0
KPMS 271205Z 18008KT 17/16 A2986 RMK A01 T01730163  RH  098%=      5-min Rain = 0
KPMS 271210Z 18008KT 17/16 A2986 RMK A01 T01740163  RH  098%=      5-min Rain = 0
KPMS 271215Z 18007KT 17/16 A2986 RMK A01 T01740163  RH  098%=      5-min Rain = 0
KPMS 271220Z 17008KT 18/16 A2986 RMK A01 T01750164  RH  098%=      5-min Rain = 0
KPMS 271225Z 17008KT 18/16 A2986 RMK A01 T01750164  RH  098%=      5-min Rain = 0
KPMS 271230Z 17008KT 18/17 A2986 RMK A01 T01760165  RH  098%=      5-min Rain = 0
KPMS 271235Z 17009KT 18/17 A2986 RMK A01 T01770167  RH  098%=      5-min Rain = 0
KPMS 271240Z 17009KT 18/17 A2986 RMK A01 T01790168  RH  098%=      5-min Rain = 0
KPMS 271245Z 17008KT 18/17 A2986 RMK A01 T01810169  RH  097%=      5-min Rain = 0
KPMS 271250Z 17008KT 18/17 A2986 RMK A01 T01820170  RH  097%=      5-min Rain = 0
KPMS 271255Z 18008KT 18/17 A2986 RMK A01 T01840170  RH  097%=      5-min Rain = 0
KPMS 271300Z 17009KT 19/17 A2986 RMK A01 T01850172  RH  096%=      5-min Rain = 0
KPMS 271305Z 18010KT 19/17 A2986 RMK A01 T01860172  RH  096%=      5-min Rain = 0
KPMS 271310Z 18010KT 19/17 A2987 RMK A01 T01870172  RH  096%=      5-min Rain = 0
KPMS 271315Z 18011KT 19/17 A2987 RMK A01 T01870172  RH  096%=      5-min Rain = 0
KPMS 271320Z 18011KT 19/17 A2987 RMK A01 T01880173  RH  096%=      5-min Rain = 0
KPMS 271325Z 17009KT 19/17 A2986 RMK A01 T01900174  RH  095%=      5-min Rain = 0
KPMS 271330Z 17010KT 19/18 A2986 RMK A01 T01920176  RH  095%=      5-min Rain = 0
KPMS 271335Z 17010KT 19/18 A2986 RMK A01 T01930176  RH  095%=      5-min Rain = 0
KPMS 271340Z 18010KT 20/18 A2986 RMK A01 T01950177  RH  095%=      5-min Rain = 0
KPMS 271345Z 18010KT 20/18 A2986 RMK A01 T01950177  RH  094%=      5-min Rain = 0
KPMS 271350Z 18009KT 20/18 A2986 RMK A01 T01970179  RH  094%=      5-min Rain = 0
KPMS 271355Z 18010G15KT 20/18 A2986 RMK A01 T01980179  RH  093%=      5-min Rain = 0
KPMS 271400Z 18010G15KT 20/18 A2986 RMK A01 T02010181  RH  093%=      5-min Rain = 0
KPMS 271405Z 18011G17KT 20/18 A2986 RMK A01 T02030180  RH  092%=      5-min Rain = 0
KPMS 271410Z 18012KT 20/18 A2987 RMK A01 T02040181  RH  091%=      5-min Rain = 0
KPMS 271415Z 18012KT 21/18 A2987 RMK A01 T02050181  RH  091%=      5-min Rain = 0
KPMS 271420Z 19012KT 21/18 A2987 RMK A01 T02050181  RH  091%=      5-min Rain = 0
KPMS 271425Z 18012KT 21/18 A2987 RMK A01 T02070182  RH  090%=      5-min Rain = 0
KPMS 271430Z 18012KT 21/18 A2987 RMK A01 T02070181  RH  090%=      5-min Rain = 0
KPMS 271435Z 19012G17KT 21/18 A2987 RMK A01 T02050181  RH  091%=      5-min Rain = 0
KPMS 271440Z 19012KT 21/18 A2987 RMK A01 T02090183  RH  090%=      5-min Rain = 0
KPMS 271445Z 19012KT 21/18 A2987 RMK A01 T02080181  RH  089%=      5-min Rain = 0
KPMS 271450Z 19013KT 21/18 A2987 RMK A01 T02110183  RH  088%=      5-min Rain = 0
KPMS 271455Z 19011KT 21/18 A2987 RMK A01 T02130184  RH  088%=      5-min Rain = 0
KPMS 271500Z 18012KT 22/18 A2986 RMK A01 T02150183  RH  087%=      5-min Rain = 0
KPMS 271505Z 18012KT 22/19 A2986 RMK A01 T02170185  RH  086%=      5-min Rain = 0
KPMS 271510Z 18012G17KT 22/19 A2986 RMK A01 T02200187  RH  086%=      5-min Rain = 0
KPMS 271515Z 18013KT 22/19 A2986 RMK A01 T02220187  RH  085%=      5-min Rain = 0
KPMS 271520Z 19012KT 22/19 A2986 RMK A01 T02230187  RH  085%=      5-min Rain = 0
KPMS 271525Z 19012G17KT 22/19 A2986 RMK A01 T02240187  RH  084%=      5-min Rain = 0
KPMS 271530Z 19012G17KT 22/19 A2986 RMK A01 T02210185  RH  085%=      5-min Rain = 0
KPMS 271535Z 19012KT 22/19 A2986 RMK A01 T02220185  RH  084%=      5-min Rain = 0
KPMS 271540Z 19012KT 22/19 A2986 RMK A01 T02240186  RH  084%=      5-min Rain = 0
KPMS 271545Z 18011G17KT 23/19 A2986 RMK A01 T02250186  RH  083%=      5-min Rain = 0
KPMS 271550Z 19011KT 23/19 A2986 RMK A01 T02270186  RH  082%=      5-min Rain = 0
KPMS 271555Z 18013KT 23/18 A2986 RMK A01 T02280184  RH  080%=      5-min Rain = 0
KPMS 271600Z 19013KT 23/19 A2986 RMK A01 T02290185  RH  080%=      5-min Rain = 0
KPMS 271605Z 19012KT 23/19 A2986 RMK A01 T02300185  RH  080%=      5-min Rain = 0
KPMS 271610Z 18012G19KT 23/19 A2986 RMK A01 T02290186  RH  081%=      5-min Rain = 0
KPMS 271615Z 18012G17KT 23/19 A2985 RMK A01 T02310185  RH  079%=      5-min Rain = 0
KPMS 271620Z 19011KT 23/19 A2985 RMK A01 T02330186  RH  079%=      5-min Rain = 0
KPMS 271625Z 18012KT 23/19 A2986 RMK A01 T02330185  RH  078%=      5-min Rain = 0
KPMS 271630Z 18011G16KT 24/18 A2986 RMK A01 T02350184  RH  077%=      5-min Rain = 0
KPMS 271635Z 18010G15KT 24/19 A2985 RMK A01 T02370185  RH  077%=      5-min Rain = 0
KPMS 271640Z 17010G16KT 24/19 A2985 RMK A01 T02390188  RH  077%=      5-min Rain = 0
KPMS 271645Z 17012KT 24/19 A2985 RMK A01 T02400187  RH  076%=      5-min Rain = 0
KPMS 271650Z 18011KT 24/18 A2985 RMK A01 T02380184  RH  075%=      5-min Rain = 0
KPMS 271655Z 17012KT 24/18 A2985 RMK A01 T02410184  RH  074%=      5-min Rain = 0
KPMS 271700Z 18012KT 24/18 A2985 RMK A01 T02420183  RH  073%=      5-min Rain = 0
KPMS 271705Z 18011G16KT 24/18 A2985 RMK A01 T02420182  RH  073%=      5-min Rain = 0
KPMS 271710Z 19011KT 24/18 A2985 RMK A01 T02440182  RH  072%=      5-min Rain = 0
KPMS 271715Z 18011G16KT 25/19 A2985 RMK A01 T02460185  RH  073%=      5-min Rain = 0
KPMS 271720Z 18010KT 25/18 A2985 RMK A01 T02480181  RH  070%=      5-min Rain = 0
KPMS 271725Z 17011KT 25/18 A2985 RMK A01 T02480180  RH  070%=      5-min Rain = 0
KPMS 271730Z 17013KT 25/18 A2985 RMK A01 T02500184  RH  071%=      5-min Rain = 0
KPMS 271735Z 17012KT 25/18 A2985 RMK A01 T02500180  RH  069%=      5-min Rain = 0
KPMS 271740Z 18010KT 25/18 A2984 RMK A01 T02530180  RH  067%=      5-min Rain = 0
KPMS 271745Z 18011G16KT 26/18 A2984 RMK A01 T02550180  RH  066%=      5-min Rain = 0.01
KPMS 271750Z 18012KT 25/18 A2984 RMK A01 T02540176  RH  066%=      5-min Rain = 0
KPMS 271755Z 19010G16KT 26/18 A2984 RMK A01 T02550179  RH  066%=      5-min Rain = 0
KPMS 271800Z 19011KT 26/18 A2984 RMK A01 T02570177  RH  065%=      5-min Rain = 0
KPMS 271805Z 19009G14KT 26/18 A2983 RMK A01 T02600177  RH  063%=      5-min Rain = 0
KPMS 271810Z 19010KT 26/17 A2983 RMK A01 T02630171  RH  060%=      5-min Rain = 0
KPMS 271815Z 18011KT 26/18 A2983 RMK A01 T02630175  RH  062%=      5-min Rain = 0
KPMS 271820Z 18009KT 26/17 A2983 RMK A01 T02640170  RH  059%=      5-min Rain = 0
KPMS 271825Z 18011KT 26/16 A2983 RMK A01 T02640164  RH  057%=      5-min Rain = 0
KPMS 271830Z 19010KT 27/16 A2983 RMK A01 T02670158  RH  054%=      5-min Rain = 0
KPMS 271835Z 19009KT 27/16 A2983 RMK A01 T02670163  RH  055%=      5-min Rain = 0
KPMS 271840Z 20008G14KT 27/16 A2983 RMK A01 T02690162  RH  055%=      5-min Rain = 0
KPMS 271845Z 17010KT 27/17 A2983 RMK A01 T02720167  RH  055%=      5-min Rain = 0
KPMS 271850Z 19011G16KT 27/16 A2982 RMK A01 T02720158  RH  052%=      5-min Rain = 0
KPMS 271855Z 19010KT 27/16 A2982 RMK A01 T02710161  RH  054%=      5-min Rain = 0
KPMS 271900Z 18012KT 27/16 A2982 RMK A01 T02740163  RH  053%=      5-min Rain = 0
KPMS 271905Z 17012KT 27/16 A2981 RMK A01 T02720162  RH  054%=      5-min Rain = 0
KPMS 271910Z 17013KT 27/17 A2981 RMK A01 T02740172  RH  057%=      5-min Rain = 0
KPMS 271915Z 17013G20KT 27/17 A2981 RMK A01 T02730165  RH  054%=      5-min Rain = 0
KPMS 271920Z 16014G19KT 27/17 A298 RMK A01 T02740167  RH  055%=      5-min Rain = 0
KPMS 271925Z 16015KT 28/16 A298 RMK A01 T02750162  RH  053%=      5-min Rain = 0
KPMS 271930Z 17014G19KT 28/16 A298 RMK A01 T02760161  RH  052%=      5-min Rain = 0
KPMS 271935Z 17013G19KT 28/16 A2979 RMK A01 T02760160  RH  052%=      5-min Rain = 0
KPMS 271940Z 17013KT 28/16 A2979 RMK A01 T02770155  RH  050%=      5-min Rain = 0
KPMS 271945Z 16016KT 28/16 A2979 RMK A01 T02780162  RH  051%=      5-min Rain = 0
KPMS 271950Z 17015G20KT 28/16 A2979 RMK A01 T02770158  RH  050%=      5-min Rain = 0
KPMS 271955Z 17014KT 28/16 A2979 RMK A01 T02790159  RH  050%=      5-min Rain = 0
KPMS 272000Z 18014G21KT 28/16 A2979 RMK A01 T02790158  RH  050%=      5-min Rain = 0
KPMS 272005Z 18015G21KT 28/16 A2978 RMK A01 T02820156  RH  049%=      5-min Rain = 0
KPMS 272010Z 17014G20KT 29/16 A2978 RMK A01 T02850156  RH  048%=      5-min Rain = 0
KPMS 272015Z 17016G21KT 28/14 A2978 RMK A01 T02830141  RH  044%=      5-min Rain = 0
KPMS 272020Z 17015G22KT 28/14 A2978 RMK A01 T02840139  RH  043%=      5-min Rain = 0
KPMS 272025Z 17014G21KT 29/15 A2978 RMK A01 T02850146  RH  044%=      5-min Rain = 0
KPMS 272030Z 17016G23KT 28/14 A2977 RMK A01 T02840139  RH  043%=      5-min Rain = 0
KPMS 272035Z 18014G19KT 29/14 A2977 RMK A01 T02880138  RH  042%=      5-min Rain = 0
KPMS 272040Z 17015KT 29/14 A2977 RMK A01 T02880142  RH  043%=      5-min Rain = 0
KPMS 272045Z 18015G20KT 29/14 A2977 RMK A01 T02880140  RH  042%=      5-min Rain = 0
KPMS 272050Z 18014G20KT 29/14 A2977 RMK A01 T02900138  RH  041%=      5-min Rain = 0
KPMS 272055Z 18015G21KT 29/13 A2976 RMK A01 T02930127  RH  038%=      5-min Rain = 0
KPMS 272100Z 18017G25KT 29/09 A2976 RMK A01 T02940089  RH  029%=      5-min Rain = 0
KPMS 272105Z 18018G26KT 30/09 A2975 RMK A01 T02960094  RH  029%=      5-min Rain = 0
KPMS 272110Z 19018KT 30/09 A2975 RMK A01 T02960093  RH  029%=      5-min Rain = 0
KPMS 272115Z 18020G28KT 30/09 A2975 RMK A01 T02970092  RH  029%=      5-min Rain = 0
KPMS 272120Z 18018G23KT 30/08 A2975 RMK A01 T02970081  RH  027%=      5-min Rain = 0
KPMS 272125Z 18017G24KT 30/09 A2974 RMK A01 T02980087  RH  028%=      5-min Rain = 0
KPMS 272130Z 18017G25KT 30/09 A2974 RMK A01 T02990090  RH  028%=      5-min Rain = 0
KPMS 272135Z 17018G27KT 30/09 A2974 RMK A01 T03000085  RH  027%=      5-min Rain = 0
KPMS 272140Z 18019G26KT 30/07 A2974 RMK A01 T03000071  RH  024%=      5-min Rain = 0
KPMS 272145Z 18019G26KT 30/06 A2974 RMK A01 T02990062  RH  023%=      5-min Rain = 0
KPMS 272150Z 19020G27KT 30/07 A2973 RMK A01 T02990065  RH  024%=      5-min Rain = 0
KPMS 272155Z 18019G29KT 30/06 A2973 RMK A01 T03000061  RH  023%=      5-min Rain = 0
KPMS 272200Z 19019G24KT 30/06 A2973 RMK A01 T02990060  RH  023%=      5-min Rain = 0
KPMS 272205Z 18019G24KT 30/06 A2973 RMK A01 T02990060  RH  023%=      5-min Rain = 0
KPMS 272210Z 18019G25KT 30/06 A2973 RMK A01 T02990059  RH  023%=      5-min Rain = 0
KPMS 272215Z 18018G25KT 30/07 A2972 RMK A01 T02980066  RH  024%=      5-min Rain = 0
KPMS 272220Z 18019G26KT 30/06 A2972 RMK A01 T02980060  RH  023%=      5-min Rain = 0
KPMS 272225Z 18018G26KT 30/07 A2972 RMK A01 T02980067  RH  024%=      5-min Rain = 0
KPMS 272230Z 19018G24KT 30/07 A2972 RMK A01 T02980069  RH  024%=      5-min Rain = 0
KPMS 272235Z 18018G24KT 30/07 A2972 RMK A01 T02980069  RH  024%=      5-min Rain = 0
KPMS 272240Z 18018G25KT 30/07 A2972 RMK A01 T02990069  RH  024%=      5-min Rain = 0
KPMS 272245Z 18018G23KT 30/07 A2972 RMK A01 T02990067  RH  024%=      5-min Rain = 0
KPMS 272250Z 18017KT 30/06 A2972 RMK A01 T02980064  RH  024%=      5-min Rain = 0
KPMS 272255Z 18016G22KT 30/07 A2971 RMK A01 T02980069  RH  024%=      5-min Rain = 0
KPMS 272300Z 18012G19KT 30/09 A2971 RMK A01 T02980085  RH  027%=      5-min Rain = 0
KPMS 272305Z 18015G21KT 30/07 A2971 RMK A01 T02970073  RH  025%=      5-min Rain = 0
KPMS 272310Z 18016G21KT 30/07 A2971 RMK A01 T02970073  RH  025%=      5-min Rain = 0
KPMS 272315Z 18013G18KT 30/09 A2971 RMK A01 T02970088  RH  028%=      5-min Rain = 0
KPMS 272320Z 17015G21KT 30/08 A297 RMK A01 T02960082  RH  027%=      5-min Rain = 0
KPMS 272325Z 17016G22KT 30/08 A297 RMK A01 T02950076  RH  026%=      5-min Rain = 0
KPMS 272330Z 17016G22KT 29/09 A297 RMK A01 T02940087  RH  028%=      5-min Rain = 0
KPMS 272335Z 17017G22KT 29/10 A297 RMK A01 T02920096  RH  030%=      5-min Rain = 0
KPMS 272340Z 17015G22KT 29/10 A297 RMK A01 T02910103  RH  032%=      5-min Rain = 0
KPMS 272345Z 17014G19KT 29/11 A2969 RMK A01 T02910109  RH  034%=      5-min Rain = 0
KPMS 272350Z 16015G20KT 29/11 A2969 RMK A01 T02900114  RH  035%=      5-min Rain = 0
KPMS 272355Z 16015KT 29/12 A2969 RMK A01 T02890118  RH  036%=      5-min Rain = 0
KPMS 280000Z 16015G21KT 29/12 A2969 RMK A01 T02880124  RH  038%=      5-min Rain = 0
KPMS 280005Z 16017G23KT 29/13 A2968 RMK A01 T02860127  RH  039%=      5-min Rain = 0
KPMS 280010Z 15018G25KT 28/15 A2968 RMK A01 T02840145  RH  045%=      5-min Rain = 0
KPMS 280015Z 15020G26KT 28/17 A2968 RMK A01 T02800169  RH  054%=      5-min Rain = 0
KPMS 280020Z 15019G25KT 28/17 A2968 RMK A01 T02770174  RH  056%=      5-min Rain = 0
KPMS 280025Z 15019G24KT 28/18 A2968 RMK A01 T02750175  RH  057%=      5-min Rain = 0
KPMS 280030Z 15018KT 27/18 A2968 RMK A01 T02730177  RH  058%=      5-min Rain = 0
KPMS 280035Z 16021G26KT 27/17 A2968 RMK A01 T02720173  RH  058%=      5-min Rain = 0
KPMS 280040Z 15021G27KT 27/17 A2968 RMK A01 T02700173  RH  058%=      5-min Rain = 0
KPMS 280045Z 15019G25KT 27/18 A2968 RMK A01 T02680175  RH  060%=      5-min Rain = 0
KPMS 280050Z 15020G26KT 27/17 A2969 RMK A01 T02660174  RH  060%=      5-min Rain = 0
KPMS 280055Z 15019G25KT 26/18 A2969 RMK A01 T02640175  RH  061%=      5-min Rain = 0
KPMS 280100Z 15019G24KT 26/18 A2969 RMK A01 T02620176  RH  062%=      5-min Rain = 0
KPMS 280105Z 15017KT 26/18 A2969 RMK A01 T02600178  RH  064%=      5-min Rain = 0
KPMS 280110Z 15016G21KT 26/18 A2969 RMK A01 T02570179  RH  066%=      5-min Rain = 0
KPMS 280115Z 15018G24KT 26/18 A2969 RMK A01 T02550179  RH  066%=      5-min Rain = 0
KPMS 280120Z 15019G24KT 25/18 A2969 RMK A01 T02540178  RH  066%=      5-min Rain = 0
KPMS 280125Z 15018G25KT 25/18 A2969 RMK A01 T02520177  RH  066%=      5-min Rain = 0
KPMS 280130Z 15017G23KT 25/17 A2969 RMK A01 T02510174  RH  066%=      5-min Rain = 0
KPMS 280135Z 15017G24KT 25/17 A297 RMK A01 T02480172  RH  066%=      5-min Rain = 0
KPMS 280140Z 15017G22KT 25/17 A297 RMK A01 T02460172  RH  066%=      5-min Rain = 0
KPMS 280145Z 15015KT 24/17 A297 RMK A01 T02440172  RH  068%=      5-min Rain = 0
KPMS 280150Z 15015KT 24/17 A297 RMK A01 T02400173  RH  069%=      5-min Rain = 0
KPMS 280155Z 15016KT 24/18 A297 RMK A01 T02400175  RH  071%=      5-min Rain = 0
KPMS 280200Z 15016KT 24/18 A297 RMK A01 T02390177  RH  072%=      5-min Rain = 0
KPMS 280205Z 15015G20KT 24/18 A297 RMK A01 T02380177  RH  073%=      5-min Rain = 0
KPMS 280210Z 15015KT 24/18 A297 RMK A01 T02370177  RH  073%=      5-min Rain = 0
KPMS 280215Z 15016KT 24/18 A297 RMK A01 T02360177  RH  073%=      5-min Rain = 0
KPMS 280220Z 15015KT 24/18 A297 RMK A01 T02350177  RH  074%=      5-min Rain = 0
KPMS 280225Z 15015KT 23/18 A297 RMK A01 T02330177  RH  075%=      5-min Rain = 0
KPMS 280230Z 15015KT 23/18 A297 RMK A01 T02320178  RH  076%=      5-min Rain = 0
KPMS 280235Z 15014KT 23/18 A297 RMK A01 T02300179  RH  077%=      5-min Rain = 0
KPMS 280240Z 14015KT 23/18 A297 RMK A01 T02290179  RH  077%=      5-min Rain = 0
KPMS 280245Z 14014KT 23/18 A297 RMK A01 T02280180  RH  078%=      5-min Rain = 0
KPMS 280250Z 14014G19KT 23/18 A297 RMK A01 T02270180  RH  079%=      5-min Rain = 0
KPMS 280255Z 14014KT 23/18 A297 RMK A01 T02260181  RH  080%=      5-min Rain = 0
KPMS 280300Z 14015KT 23/18 A297 RMK A01 T02250181  RH  080%=      5-min Rain = 0
KPMS 280305Z 14014KT 22/18 A297 RMK A01 T02240182  RH  081%=      5-min Rain = 0
KPMS 280310Z 14014KT 22/18 A297 RMK A01 T02220182  RH  082%=      5-min Rain = 0
KPMS 280315Z 15015KT 22/18 A297 RMK A01 T02230182  RH  082%=      5-min Rain = 0
KPMS 280320Z 15014G19KT 22/18 A297 RMK A01 T02220182  RH  083%=      5-min Rain = 0
KPMS 280325Z 14014KT 22/18 A297 RMK A01 T02220182  RH  082%=      5-min Rain = 0
KPMS 280330Z 15014KT 22/18 A297 RMK A01 T02200181  RH  083%=      5-min Rain = 0
KPMS 280335Z 14014KT 22/18 A297 RMK A01 T02200181  RH  083%=      5-min Rain = 0
KPMS 280340Z 14015KT 22/18 A297 RMK A01 T02190181  RH  083%=      5-min Rain = 0
KPMS 280345Z 15015KT 22/18 A297 RMK A01 T02190181  RH  083%=      5-min Rain = 0
KPMS 280350Z 15016KT 22/18 A297 RMK A01 T02190182  RH  084%=      5-min Rain = 0
KPMS 280355Z 15016KT 22/18 A297 RMK A01 T02190182  RH  084%=      5-min Rain = 0
KPMS 280400Z 15016G21KT 22/18 A297 RMK A01 T02190182  RH  084%=      5-min Rain = 0
KPMS 280405Z 15016G21KT 22/18 A297 RMK A01 T02190182  RH  084%=      5-min Rain = 0
KPMS 280410Z 15016KT 22/18 A297 RMK A01 T02180183  RH  085%=      5-min Rain = 0
KPMS 280415Z 15017G22KT 22/18 A297 RMK A01 T02180183  RH  085%=      5-min Rain = 0
KPMS 280420Z 15018KT 22/18 A297 RMK A01 T02180183  RH  085%=      5-min Rain = 0
KPMS 280425Z 15017G22KT 22/18 A297 RMK A01 T02170184  RH  086%=      5-min Rain = 0
KPMS 280430Z 15018KT 22/18 A297 RMK A01 T02160184  RH  087%=      5-min Rain = 0
KPMS 280435Z 15018G25KT 22/18 A297 RMK A01 T02150184  RH  087%=      5-min Rain = 0
KPMS 280440Z 15017KT 22/18 A297 RMK A01 T02150184  RH  087%=      5-min Rain = 0
KPMS 280445Z 15018G23KT 21/18 A297 RMK A01 T02140184  RH  087%=      5-min Rain = 0
KPMS 280450Z 15018KT 21/18 A297 RMK A01 T02140183  RH  087%=      5-min Rain = 0
KPMS 280455Z 15018KT 21/18 A297 RMK A01 T02140183  RH  087%=      5-min Rain = 0

Page generated in 0.0293 seconds.